sensor_id;sensor_type;location;lat;lon;timestamp;temperature;humidity
78054;DHT22;67726;45.636;11.752;2023-09-07T00:00:47;22.30;59.00
78054;DHT22;67726;45.636;11.752;2023-09-07T00:03:13;22.20;59.40
78054;DHT22;67726;45.636;11.752;2023-09-07T00:05:39;22.20;59.80
78054;DHT22;67726;45.636;11.752;2023-09-07T00:08:05;22.10;59.40
78054;DHT22;67726;45.636;11.752;2023-09-07T00:10:32;22.10;60.10
78054;DHT22;67726;45.636;11.752;2023-09-07T00:13:01;22.10;59.40
78054;DHT22;67726;45.636;11.752;2023-09-07T00:15:28;22.10;59.30
78054;DHT22;67726;45.636;11.752;2023-09-07T00:17:55;22.00;59.70
78054;DHT22;67726;45.636;11.752;2023-09-07T00:20:21;22.00;59.70
78054;DHT22;67726;45.636;11.752;2023-09-07T00:22:47;22.00;60.20
78054;DHT22;67726;45.636;11.752;2023-09-07T00:25:13;22.00;59.30
78054;DHT22;67726;45.636;11.752;2023-09-07T00:27:39;22.00;59.80
78054;DHT22;67726;45.636;11.752;2023-09-07T00:30:05;21.90;60.70
78054;DHT22;67726;45.636;11.752;2023-09-07T00:32:32;21.90;60.50
78054;DHT22;67726;45.636;11.752;2023-09-07T00:34:59;22.00;61.00
78054;DHT22;67726;45.636;11.752;2023-09-07T00:37:24;21.90;60.40
78054;DHT22;67726;45.636;11.752;2023-09-07T00:39:50;21.90;60.40
78054;DHT22;67726;45.636;11.752;2023-09-07T00:42:20;21.90;60.40
78054;DHT22;67726;45.636;11.752;2023-09-07T00:44:46;21.90;60.30
78054;DHT22;67726;45.636;11.752;2023-09-07T00:47:13;21.90;60.60
78054;DHT22;67726;45.636;11.752;2023-09-07T00:49:39;21.90;60.60
78054;DHT22;67726;45.636;11.752;2023-09-07T00:52:05;21.90;60.50
78054;DHT22;67726;45.636;11.752;2023-09-07T00:54:31;21.90;60.90
78054;DHT22;67726;45.636;11.752;2023-09-07T00:56:57;21.90;60.90
78054;DHT22;67726;45.636;11.752;2023-09-07T00:59:23;21.90;61.30
78054;DHT22;67726;45.636;11.752;2023-09-07T01:01:48;21.90;61.10
78054;DHT22;67726;45.636;11.752;2023-09-07T01:04:14;21.80;61.20
78054;DHT22;67726;45.636;11.752;2023-09-07T01:06:43;21.70;62.00
78054;DHT22;67726;45.636;11.752;2023-09-07T01:09:17;21.70;61.80
78054;DHT22;67726;45.636;11.752;2023-09-07T01:11:44;21.70;61.40
78054;DHT22;67726;45.636;11.752;2023-09-07T01:14:10;21.70;61.70
78054;DHT22;67726;45.636;11.752;2023-09-07T01:16:36;21.60;61.80
78054;DHT22;67726;45.636;11.752;2023-09-07T01:19:06;21.60;62.10
78054;DHT22;67726;45.636;11.752;2023-09-07T01:21:36;21.50;62.30
78054;DHT22;67726;45.636;11.752;2023-09-07T01:24:05;21.40;62.30
78054;DHT22;67726;45.636;11.752;2023-09-07T01:26:31;21.40;62.50
78054;DHT22;67726;45.636;11.752;2023-09-07T01:28:57;21.30;62.80
78054;DHT22;67726;45.636;11.752;2023-09-07T01:31:23;21.30;62.90
78054;DHT22;67726;45.636;11.752;2023-09-07T01:33:48;21.30;63.00
78054;DHT22;67726;45.636;11.752;2023-09-07T01:36:14;21.30;63.00
78054;DHT22;67726;45.636;11.752;2023-09-07T01:38:40;21.30;63.50
78054;DHT22;67726;45.636;11.752;2023-09-07T01:41:05;21.20;63.90
78054;DHT22;67726;45.636;11.752;2023-09-07T01:43:31;21.20;63.70
78054;DHT22;67726;45.636;11.752;2023-09-07T01:45:56;21.10;63.90
78054;DHT22;67726;45.636;11.752;2023-09-07T01:48:22;21.10;64.30
78054;DHT22;67726;45.636;11.752;2023-09-07T01:50:52;21.10;65.10
78054;DHT22;67726;45.636;11.752;2023-09-07T01:53:18;21.10;64.70
78054;DHT22;67726;45.636;11.752;2023-09-07T01:55:44;21.10;64.00
78054;DHT22;67726;45.636;11.752;2023-09-07T01:58:10;21.10;64.00
78054;DHT22;67726;45.636;11.752;2023-09-07T02:00:37;21.10;64.40
78054;DHT22;67726;45.636;11.752;2023-09-07T02:03:04;21.10;64.30
78054;DHT22;67726;45.636;11.752;2023-09-07T02:05:30;21.00;64.30
78054;DHT22;67726;45.636;11.752;2023-09-07T02:07:57;20.90;64.50
78054;DHT22;67726;45.636;11.752;2023-09-07T02:10:23;21.00;64.50
78054;DHT22;67726;45.636;11.752;2023-09-07T02:12:49;20.90;64.50
78054;DHT22;67726;45.636;11.752;2023-09-07T02:15:15;21.00;65.00
78054;DHT22;67726;45.636;11.752;2023-09-07T02:17:40;21.00;65.00
78054;DHT22;67726;45.636;11.752;2023-09-07T02:20:10;20.90;65.00
78054;DHT22;67726;45.636;11.752;2023-09-07T02:22:37;20.90;66.10
78054;DHT22;67726;45.636;11.752;2023-09-07T02:25:03;20.90;64.90
78054;DHT22;67726;45.636;11.752;2023-09-07T02:27:32;20.90;69.00
78054;DHT22;67726;45.636;11.752;2023-09-07T02:29:57;20.90;65.70
78054;DHT22;67726;45.636;11.752;2023-09-07T02:32:23;20.90;65.20
78054;DHT22;67726;45.636;11.752;2023-09-07T02:34:49;20.90;65.70
78054;DHT22;67726;45.636;11.752;2023-09-07T02:37:14;20.90;65.70
78054;DHT22;67726;45.636;11.752;2023-09-07T02:39:42;21.00;66.30
78054;DHT22;67726;45.636;11.752;2023-09-07T02:42:07;20.90;66.40
78054;DHT22;67726;45.636;11.752;2023-09-07T02:44:33;20.90;66.20
78054;DHT22;67726;45.636;11.752;2023-09-07T02:46:59;20.90;67.40
78054;DHT22;67726;45.636;11.752;2023-09-07T02:49:24;20.80;67.90
78054;DHT22;67726;45.636;11.752;2023-09-07T02:51:50;20.90;65.80
78054;DHT22;67726;45.636;11.752;2023-09-07T02:54:16;20.90;67.60
78054;DHT22;67726;45.636;11.752;2023-09-07T02:56:41;20.90;67.60
78054;DHT22;67726;45.636;11.752;2023-09-07T02:59:07;20.90;67.10
78054;DHT22;67726;45.636;11.752;2023-09-07T03:01:33;20.80;67.80
78054;DHT22;67726;45.636;11.752;2023-09-07T03:03:59;20.80;67.90
78054;DHT22;67726;45.636;11.752;2023-09-07T03:06:25;20.80;68.00
78054;DHT22;67726;45.636;11.752;2023-09-07T03:08:51;20.80;68.10
78054;DHT22;67726;45.636;11.752;2023-09-07T03:11:18;20.60;68.30
78054;DHT22;67726;45.636;11.752;2023-09-07T03:13:43;20.70;68.50
78054;DHT22;67726;45.636;11.752;2023-09-07T03:16:10;20.50;69.20
78054;DHT22;67726;45.636;11.752;2023-09-07T03:18:35;20.50;69.60
78054;DHT22;67726;45.636;11.752;2023-09-07T03:21:02;20.40;71.30
78054;DHT22;67726;45.636;11.752;2023-09-07T03:23:32;20.40;70.60
78054;DHT22;67726;45.636;11.752;2023-09-07T03:25:59;20.30;71.80
78054;DHT22;67726;45.636;11.752;2023-09-07T03:28:25;20.20;70.80
78054;DHT22;67726;45.636;11.752;2023-09-07T03:30:51;20.10;71.30
78054;DHT22;67726;45.636;11.752;2023-09-07T03:33:17;20.00;76.80
78054;DHT22;67726;45.636;11.752;2023-09-07T03:35:43;20.00;75.10
78054;DHT22;67726;45.636;11.752;2023-09-07T03:38:09;20.10;75.10
78054;DHT22;67726;45.636;11.752;2023-09-07T03:40:34;20.00;75.60
78054;DHT22;67726;45.636;11.752;2023-09-07T03:43:01;19.90;75.20
78054;DHT22;67726;45.636;11.752;2023-09-07T03:45:27;19.80;74.90
78054;DHT22;67726;45.636;11.752;2023-09-07T03:47:52;19.70;75.30
78054;DHT22;67726;45.636;11.752;2023-09-07T03:50:18;19.70;74.90
78054;DHT22;67726;45.636;11.752;2023-09-07T03:52:44;19.60;75.20
78054;DHT22;67726;45.636;11.752;2023-09-07T03:55:09;19.60;75.30
78054;DHT22;67726;45.636;11.752;2023-09-07T03:57:35;19.40;75.40
78054;DHT22;67726;45.636;11.752;2023-09-07T04:00:02;19.50;75.40
78054;DHT22;67726;45.636;11.752;2023-09-07T04:02:33;19.50;75.40
78054;DHT22;67726;45.636;11.752;2023-09-07T04:04:58;19.40;75.80
78054;DHT22;67726;45.636;11.752;2023-09-07T04:07:24;19.30;76.20
78054;DHT22;67726;45.636;11.752;2023-09-07T04:09:50;19.40;76.10
78054;DHT22;67726;45.636;11.752;2023-09-07T04:12:16;19.40;75.90
78054;DHT22;67726;45.636;11.752;2023-09-07T04:14:41;19.40;75.80
78054;DHT22;67726;45.636;11.752;2023-09-07T04:17:08;19.40;76.00
78054;DHT22;67726;45.636;11.752;2023-09-07T04:19:33;19.30;76.00
78054;DHT22;67726;45.636;11.752;2023-09-07T04:22:00;19.40;75.80
78054;DHT22;67726;45.636;11.752;2023-09-07T04:24:26;19.40;75.90
78054;DHT22;67726;45.636;11.752;2023-09-07T04:26:53;19.30;76.20
78054;DHT22;67726;45.636;11.752;2023-09-07T04:29:19;19.30;76.10
78054;DHT22;67726;45.636;11.752;2023-09-07T04:31:44;19.30;76.20
78054;DHT22;67726;45.636;11.752;2023-09-07T04:34:10;19.30;75.80
78054;DHT22;67726;45.636;11.752;2023-09-07T04:36:36;19.40;75.90
78054;DHT22;67726;45.636;11.752;2023-09-07T04:39:02;19.30;76.00
78054;DHT22;67726;45.636;11.752;2023-09-07T04:41:29;19.30;76.00
78054;DHT22;67726;45.636;11.752;2023-09-07T04:43:55;19.40;76.30
78054;DHT22;67726;45.636;11.752;2023-09-07T04:46:22;19.30;76.00
78054;DHT22;67726;45.636;11.752;2023-09-07T04:48:48;19.40;76.30
78054;DHT22;67726;45.636;11.752;2023-09-07T04:51:14;19.40;75.90
78054;DHT22;67726;45.636;11.752;2023-09-07T04:53:40;19.40;75.90
78054;DHT22;67726;45.636;11.752;2023-09-07T04:56:06;19.50;76.30
78054;DHT22;67726;45.636;11.752;2023-09-07T04:58:34;19.50;76.10
78054;DHT22;67726;45.636;11.752;2023-09-07T05:01:26;19.50;76.00
78054;DHT22;67726;45.636;11.752;2023-09-07T05:03:51;19.60;75.90
78054;DHT22;67726;45.636;11.752;2023-09-07T05:06:17;19.60;75.80
78054;DHT22;67726;45.636;11.752;2023-09-07T05:08:43;19.70;75.60
78054;DHT22;67726;45.636;11.752;2023-09-07T05:11:08;19.70;75.70
78054;DHT22;67726;45.636;11.752;2023-09-07T05:13:34;19.90;75.70
78054;DHT22;67726;45.636;11.752;2023-09-07T05:16:00;19.90;75.90
78054;DHT22;67726;45.636;11.752;2023-09-07T05:18:26;20.00;75.50
78054;DHT22;67726;45.636;11.752;2023-09-07T05:20:52;20.20;75.40
78054;DHT22;67726;45.636;11.752;2023-09-07T05:23:22;20.30;75.00
78054;DHT22;67726;45.636;11.752;2023-09-07T05:25:51;20.50;74.90
78054;DHT22;67726;45.636;11.752;2023-09-07T05:28:18;20.60;75.10
78054;DHT22;67726;45.636;11.752;2023-09-07T05:30:44;20.80;74.90
78054;DHT22;67726;45.636;11.752;2023-09-07T05:33:11;21.00;72.10
78054;DHT22;67726;45.636;11.752;2023-09-07T05:35:37;21.20;72.60
78054;DHT22;67726;45.636;11.752;2023-09-07T05:38:04;21.50;71.90
78054;DHT22;67726;45.636;11.752;2023-09-07T05:40:33;21.60;70.70
78054;DHT22;67726;45.636;11.752;2023-09-07T05:42:58;22.10;68.30
78054;DHT22;67726;45.636;11.752;2023-09-07T05:45:25;22.30;69.20
78054;DHT22;67726;45.636;11.752;2023-09-07T05:47:50;22.70;69.30
78054;DHT22;67726;45.636;11.752;2023-09-07T05:50:16;22.90;66.40
78054;DHT22;67726;45.636;11.752;2023-09-07T05:52:42;23.30;65.90
78054;DHT22;67726;45.636;11.752;2023-09-07T05:55:07;23.70;63.10
78054;DHT22;67726;45.636;11.752;2023-09-07T05:57:33;24.10;62.80
78054;DHT22;67726;45.636;11.752;2023-09-07T05:59:59;24.60;61.00
78054;DHT22;67726;45.636;11.752;2023-09-07T06:02:25;25.00;59.90
78054;DHT22;67726;45.636;11.752;2023-09-07T06:04:50;25.50;57.30
78054;DHT22;67726;45.636;11.752;2023-09-07T06:07:16;25.90;56.00
78054;DHT22;67726;45.636;11.752;2023-09-07T06:09:41;26.40;53.30
78054;DHT22;67726;45.636;11.752;2023-09-07T06:12:07;26.90;51.20
78054;DHT22;67726;45.636;11.752;2023-09-07T06:14:33;27.30;51.20
78054;DHT22;67726;45.636;11.752;2023-09-07T06:16:58;27.70;50.20
78054;DHT22;67726;45.636;11.752;2023-09-07T06:19:24;27.80;48.20
78054;DHT22;67726;45.636;11.752;2023-09-07T06:21:50;27.80;47.40
78054;DHT22;67726;45.636;11.752;2023-09-07T06:24:15;27.80;48.10
78054;DHT22;67726;45.636;11.752;2023-09-07T06:26:41;28.00;48.50
78054;DHT22;67726;45.636;11.752;2023-09-07T06:29:08;28.30;47.40
78054;DHT22;67726;45.636;11.752;2023-09-07T06:31:33;28.80;46.60
78054;DHT22;67726;45.636;11.752;2023-09-07T06:33:59;29.40;44.20
78054;DHT22;67726;45.636;11.752;2023-09-07T06:36:25;30.20;43.60
78054;DHT22;67726;45.636;11.752;2023-09-07T06:38:50;30.80;40.90
78054;DHT22;67726;45.636;11.752;2023-09-07T06:41:16;31.50;40.20
78054;DHT22;67726;45.636;11.752;2023-09-07T06:43:42;31.70;38.70
78054;DHT22;67726;45.636;11.752;2023-09-07T06:46:08;32.00;36.80
78054;DHT22;67726;45.636;11.752;2023-09-07T06:48:34;32.60;36.00
78054;DHT22;67726;45.636;11.752;2023-09-07T06:51:04;33.20;35.00
78054;DHT22;67726;45.636;11.752;2023-09-07T06:53:30;33.50;34.60
78054;DHT22;67726;45.636;11.752;2023-09-07T06:56:03;33.70;33.70
78054;DHT22;67726;45.636;11.752;2023-09-07T06:58:30;34.10;33.40
78054;DHT22;67726;45.636;11.752;2023-09-07T07:00:58;34.90;32.00
78054;DHT22;67726;45.636;11.752;2023-09-07T07:03:28;35.50;30.00
78054;DHT22;67726;45.636;11.752;2023-09-07T07:05:55;36.40;29.80
78054;DHT22;67726;45.636;11.752;2023-09-07T07:08:21;37.00;27.10
78054;DHT22;67726;45.636;11.752;2023-09-07T07:10:47;37.70;27.30
78054;DHT22;67726;45.636;11.752;2023-09-07T07:13:12;38.50;26.30
78054;DHT22;67726;45.636;11.752;2023-09-07T07:15:38;38.90;24.80
78054;DHT22;67726;45.636;11.752;2023-09-07T07:18:04;39.30;23.50
78054;DHT22;67726;45.636;11.752;2023-09-07T07:20:41;39.40;23.30
78054;DHT22;67726;45.636;11.752;2023-09-07T07:23:07;39.60;23.40
78054;DHT22;67726;45.636;11.752;2023-09-07T07:25:33;40.10;22.50
78054;DHT22;67726;45.636;11.752;2023-09-07T07:28:03;40.50;21.40
78054;DHT22;67726;45.636;11.752;2023-09-07T07:30:38;40.80;21.20
78054;DHT22;67726;45.636;11.752;2023-09-07T07:33:06;41.20;20.90
78054;DHT22;67726;45.636;11.752;2023-09-07T07:35:35;41.40;20.40
78054;DHT22;67726;45.636;11.752;2023-09-07T07:38:02;41.80;19.90
78054;DHT22;67726;45.636;11.752;2023-09-07T07:40:29;42.10;17.50
78054;DHT22;67726;45.636;11.752;2023-09-07T07:42:55;42.20;18.80
78054;DHT22;67726;45.636;11.752;2023-09-07T07:45:21;41.80;18.50
78054;DHT22;67726;45.636;11.752;2023-09-07T07:47:48;41.90;17.30
78054;DHT22;67726;45.636;11.752;2023-09-07T07:50:15;42.30;17.70
78054;DHT22;67726;45.636;11.752;2023-09-07T07:52:41;0.20;0.20
78054;DHT22;67726;45.636;11.752;2023-09-07T07:55:07;0.20;0.20
78054;DHT22;67726;45.636;11.752;2023-09-07T07:57:33;0.20;0.20
78054;DHT22;67726;45.636;11.752;2023-09-07T07:59:58;0.20;0.20
78054;DHT22;67726;45.636;11.752;2023-09-07T08:02:24;0.20;0.20
78054;DHT22;67726;45.636;11.752;2023-09-07T08:04:50;0.20;0.20
78054;DHT22;67726;45.636;11.752;2023-09-07T08:07:16;0.20;0.20
78054;DHT22;67726;45.636;11.752;2023-09-07T08:09:42;0.20;0.20
78054;DHT22;67726;45.636;11.752;2023-09-07T08:12:08;0.20;0.20
78054;DHT22;67726;45.636;11.752;2023-09-07T08:14:34;0.20;0.20
78054;DHT22;67726;45.636;11.752;2023-09-07T08:17:00;0.20;0.20
78054;DHT22;67726;45.636;11.752;2023-09-07T08:19:27;0.20;0.20
78054;DHT22;67726;45.636;11.752;2023-09-07T08:21:57;0.20;0.20
78054;DHT22;67726;45.636;11.752;2023-09-07T08:24:24;0.20;0.20
78054;DHT22;67726;45.636;11.752;2023-09-07T08:26:50;0.20;0.20
78054;DHT22;67726;45.636;11.752;2023-09-07T08:29:16;0.20;0.20
78054;DHT22;67726;45.636;11.752;2023-09-07T08:31:42;0.20;0.20
78054;DHT22;67726;45.636;11.752;2023-09-07T08:34:11;0.20;0.20
78054;DHT22;67726;45.636;11.752;2023-09-07T08:36:37;0.20;0.20
78054;DHT22;67726;45.636;11.752;2023-09-07T08:39:04;0.20;0.20
78054;DHT22;67726;45.636;11.752;2023-09-07T08:41:39;0.20;0.20
78054;DHT22;67726;45.636;11.752;2023-09-07T08:44:15;0.20;0.20
78054;DHT22;67726;45.636;11.752;2023-09-07T08:46:41;0.20;0.20
78054;DHT22;67726;45.636;11.752;2023-09-07T08:49:08;0.20;0.20
78054;DHT22;67726;45.636;11.752;2023-09-07T08:51:34;0.20;0.20
78054;DHT22;67726;45.636;11.752;2023-09-07T08:54:03;0.20;0.20
78054;DHT22;67726;45.636;11.752;2023-09-07T08:56:29;0.20;0.20
78054;DHT22;67726;45.636;11.752;2023-09-07T08:58:54;0.20;0.20
78054;DHT22;67726;45.636;11.752;2023-09-07T09:01:20;0.20;0.20
78054;DHT22;67726;45.636;11.752;2023-09-07T09:03:48;0.20;0.20
78054;DHT22;67726;45.636;11.752;2023-09-07T09:06:14;0.20;0.20
78054;DHT22;67726;45.636;11.752;2023-09-07T09:08:46;0.20;0.20
78054;DHT22;67726;45.636;11.752;2023-09-07T09:11:16;0.20;0.20
78054;DHT22;67726;45.636;11.752;2023-09-07T09:13:42;0.20;0.20
78054;DHT22;67726;45.636;11.752;2023-09-07T09:16:09;0.20;0.20
78054;DHT22;67726;45.636;11.752;2023-09-07T09:18:35;0.20;0.20
78054;DHT22;67726;45.636;11.752;2023-09-07T09:21:01;0.20;0.20
78054;DHT22;67726;45.636;11.752;2023-09-07T09:23:34;0.20;0.20
78054;DHT22;67726;45.636;11.752;2023-09-07T09:26:03;0.20;0.20
78054;DHT22;67726;45.636;11.752;2023-09-07T09:28:31;0.20;0.20
78054;DHT22;67726;45.636;11.752;2023-09-07T09:30:58;0.20;0.20
78054;DHT22;67726;45.636;11.752;2023-09-07T09:33:25;0.20;0.20
78054;DHT22;67726;45.636;11.752;2023-09-07T09:35:53;0.20;0.20
78054;DHT22;67726;45.636;11.752;2023-09-07T09:38:19;0.20;0.20
78054;DHT22;67726;45.636;11.752;2023-09-07T09:40:45;0.20;0.20
78054;DHT22;67726;45.636;11.752;2023-09-07T09:43:12;0.20;0.20
78054;DHT22;67726;45.636;11.752;2023-09-07T09:45:38;0.20;0.20
78054;DHT22;67726;45.636;11.752;2023-09-07T09:48:05;0.20;0.20
78054;DHT22;67726;45.636;11.752;2023-09-07T09:50:32;0.20;0.20
78054;DHT22;67726;45.636;11.752;2023-09-07T09:53:00;0.20;0.20
78054;DHT22;67726;45.636;11.752;2023-09-07T09:55:27;0.20;0.20
78054;DHT22;67726;45.636;11.752;2023-09-07T09:57:53;0.20;0.20
78054;DHT22;67726;45.636;11.752;2023-09-07T10:00:23;0.20;0.20
78054;DHT22;67726;45.636;11.752;2023-09-07T10:05:37;0.20;0.20
78054;DHT22;67726;45.636;11.752;2023-09-07T10:08:12;0.20;0.20
78054;DHT22;67726;45.636;11.752;2023-09-07T10:10:40;0.20;0.20
78054;DHT22;67726;45.636;11.752;2023-09-07T10:13:06;0.20;0.20
78054;DHT22;67726;45.636;11.752;2023-09-07T10:15:32;0.20;0.20
78054;DHT22;67726;45.636;11.752;2023-09-07T10:18:12;0.20;0.20
78054;DHT22;67726;45.636;11.752;2023-09-07T10:20:57;0.20;0.20
78054;DHT22;67726;45.636;11.752;2023-09-07T10:23:38;0.20;0.20
78054;DHT22;67726;45.636;11.752;2023-09-07T10:26:05;0.20;0.20
78054;DHT22;67726;45.636;11.752;2023-09-07T10:28:31;0.20;0.20
78054;DHT22;67726;45.636;11.752;2023-09-07T10:33:24;0.20;0.20
78054;DHT22;67726;45.636;11.752;2023-09-07T10:35:49;0.20;0.20
78054;DHT22;67726;45.636;11.752;2023-09-07T10:38:15;0.20;0.20
78054;DHT22;67726;45.636;11.752;2023-09-07T10:40:44;0.20;0.20
78054;DHT22;67726;45.636;11.752;2023-09-07T10:43:10;0.20;0.20
78054;DHT22;67726;45.636;11.752;2023-09-07T10:45:36;0.20;0.20
78054;DHT22;67726;45.636;11.752;2023-09-07T10:48:02;0.20;0.20
78054;DHT22;67726;45.636;11.752;2023-09-07T10:50:42;0.20;0.20
78054;DHT22;67726;45.636;11.752;2023-09-07T10:53:08;0.20;0.20
78054;DHT22;67726;45.636;11.752;2023-09-07T10:55:37;0.20;0.20
78054;DHT22;67726;45.636;11.752;2023-09-07T10:58:06;0.20;0.20
78054;DHT22;67726;45.636;11.752;2023-09-07T11:00:32;0.20;0.20
78054;DHT22;67726;45.636;11.752;2023-09-07T11:02:58;0.20;0.20
78054;DHT22;67726;45.636;11.752;2023-09-07T11:05:23;0.20;0.20
78054;DHT22;67726;45.636;11.752;2023-09-07T11:07:49;0.20;0.20
78054;DHT22;67726;45.636;11.752;2023-09-07T11:10:15;0.20;0.20
78054;DHT22;67726;45.636;11.752;2023-09-07T11:12:41;0.20;0.20
78054;DHT22;67726;45.636;11.752;2023-09-07T11:15:10;0.20;0.20
78054;DHT22;67726;45.636;11.752;2023-09-07T11:17:39;0.20;0.20
78054;DHT22;67726;45.636;11.752;2023-09-07T11:20:08;0.20;0.20
78054;DHT22;67726;45.636;11.752;2023-09-07T11:22:36;0.20;0.20
78054;DHT22;67726;45.636;11.752;2023-09-07T11:25:05;0.20;0.20
78054;DHT22;67726;45.636;11.752;2023-09-07T11:27:31;0.20;0.20
78054;DHT22;67726;45.636;11.752;2023-09-07T11:29:57;0.20;0.20
78054;DHT22;67726;45.636;11.752;2023-09-07T11:32:24;0.20;0.20
78054;DHT22;67726;45.636;11.752;2023-09-07T11:34:51;0.20;0.20
78054;DHT22;67726;45.636;11.752;2023-09-07T11:37:23;0.20;0.20
78054;DHT22;67726;45.636;11.752;2023-09-07T11:39:49;0.20;0.20
78054;DHT22;67726;45.636;11.752;2023-09-07T11:42:14;0.20;0.20
78054;DHT22;67726;45.636;11.752;2023-09-07T11:44:40;0.20;0.20
78054;DHT22;67726;45.636;11.752;2023-09-07T11:47:06;0.20;0.20
78054;DHT22;67726;45.636;11.752;2023-09-07T11:49:32;0.20;0.20
78054;DHT22;67726;45.636;11.752;2023-09-07T11:51:58;0.20;0.20
78054;DHT22;67726;45.636;11.752;2023-09-07T11:54:24;0.20;0.20
78054;DHT22;67726;45.636;11.752;2023-09-07T11:56:49;0.20;0.20
78054;DHT22;67726;45.636;11.752;2023-09-07T11:59:15;0.20;0.20
78054;DHT22;67726;45.636;11.752;2023-09-07T12:01:44;0.20;0.20
78054;DHT22;67726;45.636;11.752;2023-09-07T12:04:10;0.20;0.20
78054;DHT22;67726;45.636;11.752;2023-09-07T12:06:36;0.20;0.20
78054;DHT22;67726;45.636;11.752;2023-09-07T12:09:06;0.20;0.20
78054;DHT22;67726;45.636;11.752;2023-09-07T12:11:32;0.20;0.20
78054;DHT22;67726;45.636;11.752;2023-09-07T12:13:59;0.20;0.20
78054;DHT22;67726;45.636;11.752;2023-09-07T12:16:28;0.20;0.20
78054;DHT22;67726;45.636;11.752;2023-09-07T12:18:54;0.20;0.20
78054;DHT22;67726;45.636;11.752;2023-09-07T12:21:20;0.20;0.20
78054;DHT22;67726;45.636;11.752;2023-09-07T12:23:46;0.20;0.20
78054;DHT22;67726;45.636;11.752;2023-09-07T12:26:13;0.20;0.20
78054;DHT22;67726;45.636;11.752;2023-09-07T12:28:40;0.20;0.20
78054;DHT22;67726;45.636;11.752;2023-09-07T12:31:05;0.20;0.20
78054;DHT22;67726;45.636;11.752;2023-09-07T12:33:31;0.20;0.20
78054;DHT22;67726;45.636;11.752;2023-09-07T12:35:58;0.20;0.20
78054;DHT22;67726;45.636;11.752;2023-09-07T12:38:24;0.20;0.20
78054;DHT22;67726;45.636;11.752;2023-09-07T12:40:54;0.20;0.20
78054;DHT22;67726;45.636;11.752;2023-09-07T12:43:19;0.20;0.20
78054;DHT22;67726;45.636;11.752;2023-09-07T12:45:48;34.80;17.80
78054;DHT22;67726;45.636;11.752;2023-09-07T12:48:14;35.10;18.00
78054;DHT22;67726;45.636;11.752;2023-09-07T12:50:39;36.40;17.00
78054;DHT22;67726;45.636;11.752;2023-09-07T12:53:06;36.70;16.90
78054;DHT22;67726;45.636;11.752;2023-09-07T12:55:31;36.80;16.80
78054;DHT22;67726;45.636;11.752;2023-09-07T12:57:58;37.50;16.30
78054;DHT22;67726;45.636;11.752;2023-09-07T13:00:24;38.30;16.00
78054;DHT22;67726;45.636;11.752;2023-09-07T13:02:50;38.90;15.20
78054;DHT22;67726;45.636;11.752;2023-09-07T13:05:15;39.10;14.50
78054;DHT22;67726;45.636;11.752;2023-09-07T13:07:41;38.50;14.80
78054;DHT22;67726;45.636;11.752;2023-09-07T13:10:09;37.30;15.70
78054;DHT22;67726;45.636;11.752;2023-09-07T13:12:36;37.00;16.10
78054;DHT22;67726;45.636;11.752;2023-09-07T13:15:03;36.80;16.30
78054;DHT22;67726;45.636;11.752;2023-09-07T13:17:29;34.60;17.40
78054;DHT22;67726;45.636;11.752;2023-09-07T13:19:54;35.60;16.70
78054;DHT22;67726;45.636;11.752;2023-09-07T13:22:20;34.60;17.30
78054;DHT22;67726;45.636;11.752;2023-09-07T13:24:46;34.40;19.50
78054;DHT22;67726;45.636;11.752;2023-09-07T13:27:12;34.30;19.00
78054;DHT22;67726;45.636;11.752;2023-09-07T13:29:37;34.90;18.10
78054;DHT22;67726;45.636;11.752;2023-09-07T13:32:03;35.20;18.00
78054;DHT22;67726;45.636;11.752;2023-09-07T13:34:29;35.30;18.60
78054;DHT22;67726;45.636;11.752;2023-09-07T13:36:55;34.60;19.10
78054;DHT22;67726;45.636;11.752;2023-09-07T13:39:22;34.10;20.50
78054;DHT22;67726;45.636;11.752;2023-09-07T13:41:47;34.60;18.90
78054;DHT22;67726;45.636;11.752;2023-09-07T13:44:16;35.10;18.50
78054;DHT22;67726;45.636;11.752;2023-09-07T13:46:43;35.40;17.90
78054;DHT22;67726;45.636;11.752;2023-09-07T13:49:10;36.00;17.60
78054;DHT22;67726;45.636;11.752;2023-09-07T13:51:35;34.80;19.30
78054;DHT22;67726;45.636;11.752;2023-09-07T13:54:08;34.10;20.30
78054;DHT22;67726;45.636;11.752;2023-09-07T13:56:34;33.90;20.80
78054;DHT22;67726;45.636;11.752;2023-09-07T13:59:01;34.50;19.90
78054;DHT22;67726;45.636;11.752;2023-09-07T14:01:27;35.40;18.80
78054;DHT22;67726;45.636;11.752;2023-09-07T14:03:52;35.80;17.80
78054;DHT22;67726;45.636;11.752;2023-09-07T14:06:18;36.30;16.60
78054;DHT22;67726;45.636;11.752;2023-09-07T14:08:47;36.60;17.40
78054;DHT22;67726;45.636;11.752;2023-09-07T14:11:14;36.60;17.80
78054;DHT22;67726;45.636;11.752;2023-09-07T14:13:39;36.80;17.40
78054;DHT22;67726;45.636;11.752;2023-09-07T14:16:05;37.00;16.90
78054;DHT22;67726;45.636;11.752;2023-09-07T14:18:31;37.20;16.90
78054;DHT22;67726;45.636;11.752;2023-09-07T14:20:56;36.20;17.30
78054;DHT22;67726;45.636;11.752;2023-09-07T14:23:24;35.30;18.30
78054;DHT22;67726;45.636;11.752;2023-09-07T14:25:51;34.60;19.00
78054;DHT22;67726;45.636;11.752;2023-09-07T14:28:17;34.30;19.80
78054;DHT22;67726;45.636;11.752;2023-09-07T14:30:43;34.10;20.20
78054;DHT22;67726;45.636;11.752;2023-09-07T14:33:08;34.00;20.40
78054;DHT22;67726;45.636;11.752;2023-09-07T14:35:34;33.60;21.10
78054;DHT22;67726;45.636;11.752;2023-09-07T14:38:00;33.40;20.90
78054;DHT22;67726;45.636;11.752;2023-09-07T14:40:26;33.10;21.20
78054;DHT22;67726;45.636;11.752;2023-09-07T14:42:52;33.20;21.00
78054;DHT22;67726;45.636;11.752;2023-09-07T14:45:19;32.80;21.10
78054;DHT22;67726;45.636;11.752;2023-09-07T14:47:45;32.50;20.40
78054;DHT22;67726;45.636;11.752;2023-09-07T14:50:10;32.40;21.50
78054;DHT22;67726;45.636;11.752;2023-09-07T14:52:36;32.80;21.00
78054;DHT22;67726;45.636;11.752;2023-09-07T14:55:07;32.40;21.20
78054;DHT22;67726;45.636;11.752;2023-09-07T14:57:33;32.20;21.70
78054;DHT22;67726;45.636;11.752;2023-09-07T15:00:02;32.60;21.10
78054;DHT22;67726;45.636;11.752;2023-09-07T15:02:29;33.10;20.80
78054;DHT22;67726;45.636;11.752;2023-09-07T15:04:55;32.70;20.90
78054;DHT22;67726;45.636;11.752;2023-09-07T15:07:21;32.40;20.80
78054;DHT22;67726;45.636;11.752;2023-09-07T15:09:49;32.40;20.80
78054;DHT22;67726;45.636;11.752;2023-09-07T15:12:15;32.50;20.90
78054;DHT22;67726;45.636;11.752;2023-09-07T15:14:40;32.40;20.80
78054;DHT22;67726;45.636;11.752;2023-09-07T15:17:06;32.50;21.00
78054;DHT22;67726;45.636;11.752;2023-09-07T15:19:33;32.60;20.90
78054;DHT22;67726;45.636;11.752;2023-09-07T15:22:00;32.50;20.90
78054;DHT22;67726;45.636;11.752;2023-09-07T15:24:25;32.30;21.90
78054;DHT22;67726;45.636;11.752;2023-09-07T15:26:51;32.20;21.50